Finley, Australia
Current Conditions -  °F | °C
As of 8:00 PM on Saturday 25 Oct 2014 (Local Time) from YMAY Reporting Station
Clear Clear  
Wind Chill: 75°   Ceiling: Unl
Heat Index: 75°   Visibility: 6mi
Dew Point: 55°   Wind: 2mph
Humidity: 50%   Direction: 70°ENE
Pressure: 29.8"   Gusts: NA
Location:  35.65°S, 145.58°E
Report Text: YMAY 250900Z AUTO 07002KT 9999 // NCD 24/13 Q1009
Loading
Personal Weather Stations






























Interactive Weather Map
Tropical Storm Tracking
New forecast layout! Learn more

10-Day Weather Forecast

Advertisements
Track Severe Weather on mobile